sensor_id;sensor_type;location;lat;lon;timestamp;temperature;humidity
9215;DHT22;4642;51.364;6.788;2022-10-18T00:00:52;14.90;99.90
9215;DHT22;4642;51.364;6.788;2022-10-18T00:03:19;14.90;99.90
9215;DHT22;4642;51.364;6.788;2022-10-18T00:05:46;14.90;99.90
9215;DHT22;4642;51.364;6.788;2022-10-18T00:08:12;14.90;99.90
9215;DHT22;4642;51.364;6.788;2022-10-18T00:10:37;14.90;99.90
9215;DHT22;4642;51.364;6.788;2022-10-18T00:13:03;14.90;99.90
9215;DHT22;4642;51.364;6.788;2022-10-18T00:15:28;14.90;99.90
9215;DHT22;4642;51.364;6.788;2022-10-18T00:17:54;14.90;99.90
9215;DHT22;4642;51.364;6.788;2022-10-18T00:20:19;14.90;99.90
9215;DHT22;4642;51.364;6.788;2022-10-18T00:22:45;14.90;99.90
9215;DHT22;4642;51.364;6.788;2022-10-18T00:25:10;14.90;99.90
9215;DHT22;4642;51.364;6.788;2022-10-18T00:27:36;14.90;99.90
9215;DHT22;4642;51.364;6.788;2022-10-18T00:30:03;14.90;99.90
9215;DHT22;4642;51.364;6.788;2022-10-18T00:32:28;14.90;99.90
9215;DHT22;4642;51.364;6.788;2022-10-18T00:34:54;14.90;99.90
9215;DHT22;4642;51.364;6.788;2022-10-18T00:37:19;14.90;99.90
9215;DHT22;4642;51.364;6.788;2022-10-18T00:39:45;14.90;99.90
9215;DHT22;4642;51.364;6.788;2022-10-18T00:42:15;14.90;99.90
9215;DHT22;4642;51.364;6.788;2022-10-18T00:47:08;14.90;99.90
9215;DHT22;4642;51.364;6.788;2022-10-18T00:49:47;14.90;99.90
9215;DHT22;4642;51.364;6.788;2022-10-18T00:52:26;14.90;99.90
9215;DHT22;4642;51.364;6.788;2022-10-18T00:54:54;14.90;99.90
9215;DHT22;4642;51.364;6.788;2022-10-18T00:57:21;14.90;99.90
9215;DHT22;4642;51.364;6.788;2022-10-18T00:59:47;14.90;99.90
9215;DHT22;4642;51.364;6.788;2022-10-18T01:02:13;14.90;99.90
9215;DHT22;4642;51.364;6.788;2022-10-18T01:04:44;14.90;99.90
9215;DHT22;4642;51.364;6.788;2022-10-18T01:15:52;14.80;99.90
9215;DHT22;4642;51.364;6.788;2022-10-18T01:18:30;14.80;99.90
9215;DHT22;4642;51.364;6.788;2022-10-18T01:27:12;14.80;99.90
9215;DHT22;4642;51.364;6.788;2022-10-18T01:32:46;14.80;99.90
9215;DHT22;4642;51.364;6.788;2022-10-18T01:35:18;14.80;99.90
9215;DHT22;4642;51.364;6.788;2022-10-18T01:37:46;14.90;99.90
9215;DHT22;4642;51.364;6.788;2022-10-18T01:40:16;14.80;99.90
9215;DHT22;4642;51.364;6.788;2022-10-18T01:42:44;14.90;99.90
9215;DHT22;4642;51.364;6.788;2022-10-18T01:45:11;14.80;99.90
9215;DHT22;4642;51.364;6.788;2022-10-18T01:47:38;14.80;99.90
9215;DHT22;4642;51.364;6.788;2022-10-18T01:50:05;14.80;99.90
9215;DHT22;4642;51.364;6.788;2022-10-18T01:52:31;14.80;99.90
9215;DHT22;4642;51.364;6.788;2022-10-18T01:54:57;14.80;99.90
9215;DHT22;4642;51.364;6.788;2022-10-18T01:57:38;14.80;99.90
9215;DHT22;4642;51.364;6.788;2022-10-18T02:00:15;14.90;99.90
9215;DHT22;4642;51.364;6.788;2022-10-18T02:03:00;14.80;99.90
9215;DHT22;4642;51.364;6.788;2022-10-18T02:05:53;14.80;99.90
9215;DHT22;4642;51.364;6.788;2022-10-18T02:11:06;14.80;99.90
9215;DHT22;4642;51.364;6.788;2022-10-18T02:13:39;14.90;99.90
9215;DHT22;4642;51.364;6.788;2022-10-18T02:16:14;14.90;99.90
9215;DHT22;4642;51.364;6.788;2022-10-18T02:18:45;14.90;99.90
9215;DHT22;4642;51.364;6.788;2022-10-18T02:21:15;14.90;99.90
9215;DHT22;4642;51.364;6.788;2022-10-18T02:23:44;14.90;99.90
9215;DHT22;4642;51.364;6.788;2022-10-18T02:26:10;14.80;99.90
9215;DHT22;4642;51.364;6.788;2022-10-18T02:28:36;14.90;99.90
9215;DHT22;4642;51.364;6.788;2022-10-18T02:33:56;14.90;99.90
9215;DHT22;4642;51.364;6.788;2022-10-18T02:36:52;14.90;99.90
9215;DHT22;4642;51.364;6.788;2022-10-18T02:39:21;14.90;99.90
9215;DHT22;4642;51.364;6.788;2022-10-18T02:41:48;14.90;99.90
9215;DHT22;4642;51.364;6.788;2022-10-18T02:44:13;14.90;99.90
9215;DHT22;4642;51.364;6.788;2022-10-18T02:46:39;14.90;99.90
9215;DHT22;4642;51.364;6.788;2022-10-18T02:49:05;14.90;99.90
9215;DHT22;4642;51.364;6.788;2022-10-18T02:51:30;14.90;99.90
9215;DHT22;4642;51.364;6.788;2022-10-18T02:53:56;14.90;99.90
9215;DHT22;4642;51.364;6.788;2022-10-18T02:56:21;14.90;99.90
9215;DHT22;4642;51.364;6.788;2022-10-18T02:58:47;14.90;99.90
9215;DHT22;4642;51.364;6.788;2022-10-18T03:01:12;14.90;99.90
9215;DHT22;4642;51.364;6.788;2022-10-18T03:03:38;14.90;99.90
9215;DHT22;4642;51.364;6.788;2022-10-18T03:06:04;14.90;99.90
9215;DHT22;4642;51.364;6.788;2022-10-18T03:08:29;14.90;99.90
9215;DHT22;4642;51.364;6.788;2022-10-18T03:10:55;14.90;99.90
9215;DHT22;4642;51.364;6.788;2022-10-18T03:13:20;14.90;99.90
9215;DHT22;4642;51.364;6.788;2022-10-18T03:15:47;14.90;99.90
9215;DHT22;4642;51.364;6.788;2022-10-18T03:18:13;14.90;99.90
9215;DHT22;4642;51.364;6.788;2022-10-18T03:20:38;14.90;99.90
9215;DHT22;4642;51.364;6.788;2022-10-18T03:23:04;14.90;99.90
9215;DHT22;4642;51.364;6.788;2022-10-18T03:25:31;14.90;99.90
9215;DHT22;4642;51.364;6.788;2022-10-18T03:27:57;14.90;99.90
9215;DHT22;4642;51.364;6.788;2022-10-18T03:30:22;14.90;99.90
9215;DHT22;4642;51.364;6.788;2022-10-18T03:32:48;14.90;99.90
9215;DHT22;4642;51.364;6.788;2022-10-18T03:35:14;14.90;99.90
9215;DHT22;4642;51.364;6.788;2022-10-18T03:37:39;14.90;99.90
9215;DHT22;4642;51.364;6.788;2022-10-18T03:40:07;14.90;99.90
9215;DHT22;4642;51.364;6.788;2022-10-18T03:42:33;14.90;99.90
9215;DHT22;4642;51.364;6.788;2022-10-18T03:44:58;14.90;99.90
9215;DHT22;4642;51.364;6.788;2022-10-18T03:47:24;14.90;99.90
9215;DHT22;4642;51.364;6.788;2022-10-18T03:49:49;14.90;99.90
9215;DHT22;4642;51.364;6.788;2022-10-18T03:52:15;14.80;99.90
9215;DHT22;4642;51.364;6.788;2022-10-18T03:54:40;14.90;99.90
9215;DHT22;4642;51.364;6.788;2022-10-18T03:57:06;14.90;99.90
9215;DHT22;4642;51.364;6.788;2022-10-18T03:59:31;14.80;99.90
9215;DHT22;4642;51.364;6.788;2022-10-18T04:01:58;14.90;99.90
9215;DHT22;4642;51.364;6.788;2022-10-18T04:04:23;14.90;99.90
9215;DHT22;4642;51.364;6.788;2022-10-18T04:06:49;14.80;99.90
9215;DHT22;4642;51.364;6.788;2022-10-18T04:09:14;14.90;99.90
9215;DHT22;4642;51.364;6.788;2022-10-18T04:11:40;14.80;99.90
9215;DHT22;4642;51.364;6.788;2022-10-18T04:14:06;14.90;99.90
9215;DHT22;4642;51.364;6.788;2022-10-18T04:16:31;14.80;99.90
9215;DHT22;4642;51.364;6.788;2022-10-18T04:18:57;14.80;99.90
9215;DHT22;4642;51.364;6.788;2022-10-18T04:21:22;14.80;99.90
9215;DHT22;4642;51.364;6.788;2022-10-18T04:23:49;14.80;99.90
9215;DHT22;4642;51.364;6.788;2022-10-18T04:26:15;14.80;99.90
9215;DHT22;4642;51.364;6.788;2022-10-18T04:28:42;14.80;99.90
9215;DHT22;4642;51.364;6.788;2022-10-18T04:31:09;14.80;99.90
9215;DHT22;4642;51.364;6.788;2022-10-18T04:33:34;14.80;99.90
9215;DHT22;4642;51.364;6.788;2022-10-18T04:36:00;14.80;99.90
9215;DHT22;4642;51.364;6.788;2022-10-18T04:38:26;14.90;99.90
9215;DHT22;4642;51.364;6.788;2022-10-18T04:40:51;14.90;99.90
9215;DHT22;4642;51.364;6.788;2022-10-18T04:43:17;14.90;99.90
9215;DHT22;4642;51.364;6.788;2022-10-18T04:45:44;14.90;99.90
9215;DHT22;4642;51.364;6.788;2022-10-18T04:48:10;14.90;99.90
9215;DHT22;4642;51.364;6.788;2022-10-18T04:50:36;14.90;99.90
9215;DHT22;4642;51.364;6.788;2022-10-18T04:53:01;14.80;99.90
9215;DHT22;4642;51.364;6.788;2022-10-18T04:55:27;14.90;99.90
9215;DHT22;4642;51.364;6.788;2022-10-18T04:57:52;14.90;99.90
9215;DHT22;4642;51.364;6.788;2022-10-18T05:00:18;14.90;99.90
9215;DHT22;4642;51.364;6.788;2022-10-18T05:02:44;14.90;99.90
9215;DHT22;4642;51.364;6.788;2022-10-18T05:05:09;14.90;99.90
9215;DHT22;4642;51.364;6.788;2022-10-18T05:07:35;14.90;99.90
9215;DHT22;4642;51.364;6.788;2022-10-18T05:10:00;14.90;99.90
9215;DHT22;4642;51.364;6.788;2022-10-18T05:12:26;14.90;99.90
9215;DHT22;4642;51.364;6.788;2022-10-18T05:14:51;14.90;99.90
9215;DHT22;4642;51.364;6.788;2022-10-18T05:17:17;14.90;99.90
9215;DHT22;4642;51.364;6.788;2022-10-18T05:19:42;14.90;99.90
9215;DHT22;4642;51.364;6.788;2022-10-18T05:22:08;14.90;99.90
9215;DHT22;4642;51.364;6.788;2022-10-18T05:24:33;14.90;99.90
9215;DHT22;4642;51.364;6.788;2022-10-18T05:26:59;14.90;99.90
9215;DHT22;4642;51.364;6.788;2022-10-18T05:29:24;14.90;99.90
9215;DHT22;4642;51.364;6.788;2022-10-18T05:31:50;14.90;99.90
9215;DHT22;4642;51.364;6.788;2022-10-18T05:34:16;14.90;99.90
9215;DHT22;4642;51.364;6.788;2022-10-18T05:36:42;14.90;99.90
9215;DHT22;4642;51.364;6.788;2022-10-18T05:39:07;14.90;99.90
9215;DHT22;4642;51.364;6.788;2022-10-18T05:41:33;14.90;99.90
9215;DHT22;4642;51.364;6.788;2022-10-18T05:44:03;14.90;99.90
9215;DHT22;4642;51.364;6.788;2022-10-18T05:46:29;14.90;99.90
9215;DHT22;4642;51.364;6.788;2022-10-18T05:48:54;14.90;99.90
9215;DHT22;4642;51.364;6.788;2022-10-18T05:51:20;14.90;99.90
9215;DHT22;4642;51.364;6.788;2022-10-18T05:53:46;14.90;99.90
9215;DHT22;4642;51.364;6.788;2022-10-18T05:56:11;14.90;99.90
9215;DHT22;4642;51.364;6.788;2022-10-18T05:58:37;14.80;99.90
9215;DHT22;4642;51.364;6.788;2022-10-18T06:01:04;14.90;99.90
9215;DHT22;4642;51.364;6.788;2022-10-18T06:03:30;14.80;99.90
9215;DHT22;4642;51.364;6.788;2022-10-18T06:06:07;14.80;99.90
9215;DHT22;4642;51.364;6.788;2022-10-18T06:08:34;14.80;99.90
9215;DHT22;4642;51.364;6.788;2022-10-18T06:11:05;14.80;99.90
9215;DHT22;4642;51.364;6.788;2022-10-18T06:13:31;14.80;99.90
9215;DHT22;4642;51.364;6.788;2022-10-18T06:15:56;14.80;99.90
9215;DHT22;4642;51.364;6.788;2022-10-18T06:18:22;14.90;99.90
9215;DHT22;4642;51.364;6.788;2022-10-18T06:20:47;14.90;99.90
9215;DHT22;4642;51.364;6.788;2022-10-18T06:23:13;14.90;99.90
9215;DHT22;4642;51.364;6.788;2022-10-18T06:25:38;14.90;99.90
9215;DHT22;4642;51.364;6.788;2022-10-18T06:28:04;14.80;99.90
9215;DHT22;4642;51.364;6.788;2022-10-18T06:30:30;14.80;99.90
9215;DHT22;4642;51.364;6.788;2022-10-18T06:32:59;14.80;99.90
9215;DHT22;4642;51.364;6.788;2022-10-18T06:35:25;14.90;99.90
9215;DHT22;4642;51.364;6.788;2022-10-18T06:37:50;14.90;99.90
9215;DHT22;4642;51.364;6.788;2022-10-18T06:40:16;14.80;99.90
9215;DHT22;4642;51.364;6.788;2022-10-18T06:42:42;14.90;99.90
9215;DHT22;4642;51.364;6.788;2022-10-18T06:45:08;14.90;99.90
9215;DHT22;4642;51.364;6.788;2022-10-18T06:47:33;14.90;99.90
9215;DHT22;4642;51.364;6.788;2022-10-18T06:49:59;14.90;99.90
9215;DHT22;4642;51.364;6.788;2022-10-18T06:52:24;14.90;99.90
9215;DHT22;4642;51.364;6.788;2022-10-18T06:54:51;14.90;99.90
9215;DHT22;4642;51.364;6.788;2022-10-18T06:57:17;14.90;99.90
9215;DHT22;4642;51.364;6.788;2022-10-18T06:59:42;14.90;99.90
9215;DHT22;4642;51.364;6.788;2022-10-18T07:02:11;14.90;99.90
9215;DHT22;4642;51.364;6.788;2022-10-18T07:04:38;14.90;99.90
9215;DHT22;4642;51.364;6.788;2022-10-18T07:07:04;15.00;99.90
9215;DHT22;4642;51.364;6.788;2022-10-18T07:09:29;15.00;99.90
9215;DHT22;4642;51.364;6.788;2022-10-18T07:11:55;14.90;99.90
9215;DHT22;4642;51.364;6.788;2022-10-18T07:14:20;15.00;99.90
9215;DHT22;4642;51.364;6.788;2022-10-18T07:16:46;15.00;99.90
9215;DHT22;4642;51.364;6.788;2022-10-18T07:19:12;15.00;99.90
9215;DHT22;4642;51.364;6.788;2022-10-18T07:21:39;15.10;99.90
9215;DHT22;4642;51.364;6.788;2022-10-18T07:24:05;15.10;99.90
9215;DHT22;4642;51.364;6.788;2022-10-18T07:26:32;15.10;99.90
9215;DHT22;4642;51.364;6.788;2022-10-18T07:29:00;15.20;99.90
9215;DHT22;4642;51.364;6.788;2022-10-18T07:31:28;15.20;99.90
9215;DHT22;4642;51.364;6.788;2022-10-18T07:33:54;15.20;99.90
9215;DHT22;4642;51.364;6.788;2022-10-18T07:36:20;15.30;99.90
9215;DHT22;4642;51.364;6.788;2022-10-18T07:38:46;15.30;99.90
9215;DHT22;4642;51.364;6.788;2022-10-18T07:41:12;15.40;99.90
9215;DHT22;4642;51.364;6.788;2022-10-18T07:43:46;15.40;99.90
9215;DHT22;4642;51.364;6.788;2022-10-18T07:46:13;15.40;99.90
9215;DHT22;4642;51.364;6.788;2022-10-18T07:48:39;15.40;99.90
9215;DHT22;4642;51.364;6.788;2022-10-18T07:51:05;15.40;99.90
9215;DHT22;4642;51.364;6.788;2022-10-18T07:53:31;15.50;99.90
9215;DHT22;4642;51.364;6.788;2022-10-18T07:56:00;15.50;99.90
9215;DHT22;4642;51.364;6.788;2022-10-18T07:58:26;15.60;99.90
9215;DHT22;4642;51.364;6.788;2022-10-18T08:00:52;15.60;99.90
9215;DHT22;4642;51.364;6.788;2022-10-18T08:03:18;15.60;99.90
9215;DHT22;4642;51.364;6.788;2022-10-18T08:05:50;15.70;99.90
9215;DHT22;4642;51.364;6.788;2022-10-18T08:08:16;15.70;99.90
9215;DHT22;4642;51.364;6.788;2022-10-18T08:10:41;15.70;99.90
9215;DHT22;4642;51.364;6.788;2022-10-18T08:13:07;15.70;99.90
9215;DHT22;4642;51.364;6.788;2022-10-18T08:15:32;15.70;99.90
9215;DHT22;4642;51.364;6.788;2022-10-18T08:17:58;15.80;99.90
9215;DHT22;4642;51.364;6.788;2022-10-18T08:20:23;15.80;99.90
9215;DHT22;4642;51.364;6.788;2022-10-18T08:22:49;15.80;99.90
9215;DHT22;4642;51.364;6.788;2022-10-18T08:25:15;15.80;99.90
9215;DHT22;4642;51.364;6.788;2022-10-18T08:27:41;15.80;99.90
9215;DHT22;4642;51.364;6.788;2022-10-18T08:30:07;15.80;99.90
9215;DHT22;4642;51.364;6.788;2022-10-18T08:32:34;15.80;99.90
9215;DHT22;4642;51.364;6.788;2022-10-18T08:34:59;15.80;99.90
9215;DHT22;4642;51.364;6.788;2022-10-18T08:37:25;15.80;99.90
9215;DHT22;4642;51.364;6.788;2022-10-18T08:39:50;15.80;99.90
9215;DHT22;4642;51.364;6.788;2022-10-18T08:44:59;15.80;99.90
9215;DHT22;4642;51.364;6.788;2022-10-18T08:47:34;15.90;99.90
9215;DHT22;4642;51.364;6.788;2022-10-18T08:50:06;15.90;99.90
9215;DHT22;4642;51.364;6.788;2022-10-18T08:52:44;15.90;99.90
9215;DHT22;4642;51.364;6.788;2022-10-18T08:55:48;16.00;99.90
9215;DHT22;4642;51.364;6.788;2022-10-18T08:58:18;16.00;99.90
9215;DHT22;4642;51.364;6.788;2022-10-18T09:03:52;16.00;99.90
9215;DHT22;4642;51.364;6.788;2022-10-18T09:06:27;16.00;99.90
9215;DHT22;4642;51.364;6.788;2022-10-18T09:25:23;16.00;99.90
9215;DHT22;4642;51.364;6.788;2022-10-18T09:30:38;16.00;99.90
9215;DHT22;4642;51.364;6.788;2022-10-18T09:33:33;16.00;99.90
9215;DHT22;4642;51.364;6.788;2022-10-18T09:36:06;16.10;99.90
9215;DHT22;4642;51.364;6.788;2022-10-18T09:38:41;16.00;99.90
9215;DHT22;4642;51.364;6.788;2022-10-18T09:44:17;16.10;99.90
9215;DHT22;4642;51.364;6.788;2022-10-18T09:46:51;16.10;99.90
9215;DHT22;4642;51.364;6.788;2022-10-18T09:49:30;16.10;99.90
9215;DHT22;4642;51.364;6.788;2022-10-18T09:51:59;16.20;99.90
9215;DHT22;4642;51.364;6.788;2022-10-18T09:54:38;16.30;99.90
9215;DHT22;4642;51.364;6.788;2022-10-18T09:57:15;16.30;99.90
9215;DHT22;4642;51.364;6.788;2022-10-18T09:59:48;16.40;99.90
9215;DHT22;4642;51.364;6.788;2022-10-18T10:02:19;16.40;99.90
9215;DHT22;4642;51.364;6.788;2022-10-18T10:04:46;16.40;99.90
9215;DHT22;4642;51.364;6.788;2022-10-18T10:07:16;16.50;99.90
9215;DHT22;4642;51.364;6.788;2022-10-18T10:12:36;16.50;99.90
9215;DHT22;4642;51.364;6.788;2022-10-18T10:15:07;16.70;99.90
9215;DHT22;4642;51.364;6.788;2022-10-18T10:17:34;16.70;99.90
9215;DHT22;4642;51.364;6.788;2022-10-18T10:20:04;16.80;99.90
9215;DHT22;4642;51.364;6.788;2022-10-18T10:22:39;16.80;99.90
9215;DHT22;4642;51.364;6.788;2022-10-18T10:25:06;16.80;99.90
9215;DHT22;4642;51.364;6.788;2022-10-18T10:27:43;16.80;99.90
9215;DHT22;4642;51.364;6.788;2022-10-18T10:32:48;16.80;99.90
9215;DHT22;4642;51.364;6.788;2022-10-18T10:35:40;16.80;99.90
9215;DHT22;4642;51.364;6.788;2022-10-18T10:38:06;16.80;99.90
9215;DHT22;4642;51.364;6.788;2022-10-18T10:40:52;16.90;99.90
9215;DHT22;4642;51.364;6.788;2022-10-18T10:43:27;16.90;99.90
9215;DHT22;4642;51.364;6.788;2022-10-18T10:46:02;17.00;99.90
9215;DHT22;4642;51.364;6.788;2022-10-18T10:48:40;17.00;99.90
9215;DHT22;4642;51.364;6.788;2022-10-18T10:51:10;17.00;99.90
9215;DHT22;4642;51.364;6.788;2022-10-18T10:53:43;17.00;99.90
9215;DHT22;4642;51.364;6.788;2022-10-18T10:56:23;17.00;99.90
9215;DHT22;4642;51.364;6.788;2022-10-18T10:58:50;17.00;99.90
9215;DHT22;4642;51.364;6.788;2022-10-18T11:01:30;17.00;99.90
9215;DHT22;4642;51.364;6.788;2022-10-18T11:04:02;17.00;99.90
9215;DHT22;4642;51.364;6.788;2022-10-18T11:12:44;17.00;99.90
9215;DHT22;4642;51.364;6.788;2022-10-18T11:17:40;17.00;99.90
9215;DHT22;4642;51.364;6.788;2022-10-18T11:22:36;17.00;99.90
9215;DHT22;4642;51.364;6.788;2022-10-18T11:25:04;17.00;99.90
9215;DHT22;4642;51.364;6.788;2022-10-18T11:27:39;17.10;99.90
9215;DHT22;4642;51.364;6.788;2022-10-18T11:33:11;17.20;99.90
9215;DHT22;4642;51.364;6.788;2022-10-18T11:35:56;17.30;99.90
9215;DHT22;4642;51.364;6.788;2022-10-18T11:43:54;17.50;99.90
9215;DHT22;4642;51.364;6.788;2022-10-18T11:55:18;17.80;99.90
9215;DHT22;4642;51.364;6.788;2022-10-18T12:00:49;17.90;99.90
9215;DHT22;4642;51.364;6.788;2022-10-18T12:03:37;18.00;99.90
9215;DHT22;4642;51.364;6.788;2022-10-18T12:06:11;18.10;99.90
9215;DHT22;4642;51.364;6.788;2022-10-18T12:09:14;18.10;99.90
9215;DHT22;4642;51.364;6.788;2022-10-18T12:11:49;18.10;99.90
9215;DHT22;4642;51.364;6.788;2022-10-18T12:14:23;18.00;99.90
9215;DHT22;4642;51.364;6.788;2022-10-18T12:16:50;18.00;99.90
9215;DHT22;4642;51.364;6.788;2022-10-18T12:19:23;18.00;99.90
9215;DHT22;4642;51.364;6.788;2022-10-18T12:21:50;18.00;99.90
9215;DHT22;4642;51.364;6.788;2022-10-18T12:24:20;18.00;99.90
9215;DHT22;4642;51.364;6.788;2022-10-18T12:26:50;18.10;99.90
9215;DHT22;4642;51.364;6.788;2022-10-18T12:32:22;18.00;99.90
9215;DHT22;4642;51.364;6.788;2022-10-18T12:34:57;18.00;99.90
9215;DHT22;4642;51.364;6.788;2022-10-18T12:42:31;18.00;99.90
9215;DHT22;4642;51.364;6.788;2022-10-18T12:45:04;17.90;99.90
9215;DHT22;4642;51.364;6.788;2022-10-18T12:47:31;17.90;99.90
9215;DHT22;4642;51.364;6.788;2022-10-18T12:50:02;17.90;99.90
9215;DHT22;4642;51.364;6.788;2022-10-18T12:52:29;17.80;99.90
9215;DHT22;4642;51.364;6.788;2022-10-18T12:55:05;17.70;99.90
9215;DHT22;4642;51.364;6.788;2022-10-18T13:08:39;18.20;99.90
9215;DHT22;4642;51.364;6.788;2022-10-18T13:13:46;18.30;99.90
9215;DHT22;4642;51.364;6.788;2022-10-18T13:26:59;18.40;99.90
9215;DHT22;4642;51.364;6.788;2022-10-18T13:38:37;18.40;99.90
9215;DHT22;4642;51.364;6.788;2022-10-18T13:41:11;18.40;99.90
9215;DHT22;4642;51.364;6.788;2022-10-18T13:49:33;18.50;1.00
9215;DHT22;4642;51.364;6.788;2022-10-18T13:52:21;18.40;1.00
9215;DHT22;4642;51.364;6.788;2022-10-18T13:58:02;18.30;99.90
9215;DHT22;4642;51.364;6.788;2022-10-18T14:01:05;18.30;1.00
9215;DHT22;4642;51.364;6.788;2022-10-18T14:06:26;18.30;1.00
9215;DHT22;4642;51.364;6.788;2022-10-18T14:09:21;18.20;1.00
9215;DHT22;4642;51.364;6.788;2022-10-18T14:12:05;18.20;1.00
9215;DHT22;4642;51.364;6.788;2022-10-18T14:14:51;18.20;99.90
9215;DHT22;4642;51.364;6.788;2022-10-18T14:17:46;18.20;1.00
9215;DHT22;4642;51.364;6.788;2022-10-18T14:20:24;18.20;1.00
9215;DHT22;4642;51.364;6.788;2022-10-18T14:23:03;18.20;1.00
9215;DHT22;4642;51.364;6.788;2022-10-18T14:25:35;18.20;1.00
9215;DHT22;4642;51.364;6.788;2022-10-18T14:28:12;18.10;1.00
9215;DHT22;4642;51.364;6.788;2022-10-18T14:33:44;17.90;79.40
9215;DHT22;4642;51.364;6.788;2022-10-18T14:38:51;17.80;99.90
9215;DHT22;4642;51.364;6.788;2022-10-18T14:43:47;17.80;1.00
9215;DHT22;4642;51.364;6.788;2022-10-18T14:46:24;17.70;99.90
9215;DHT22;4642;51.364;6.788;2022-10-18T14:48:59;17.70;1.00
9215;DHT22;4642;51.364;6.788;2022-10-18T14:51:28;17.60;99.90
9215;DHT22;4642;51.364;6.788;2022-10-18T14:53:54;17.60;1.00
9215;DHT22;4642;51.364;6.788;2022-10-18T14:58:52;17.50;1.00
9215;DHT22;4642;51.364;6.788;2022-10-18T15:01:20;17.40;99.90
9215;DHT22;4642;51.364;6.788;2022-10-18T15:03:48;17.40;99.90
9215;DHT22;4642;51.364;6.788;2022-10-18T15:06:18;17.30;99.90
9215;DHT22;4642;51.364;6.788;2022-10-18T15:08:46;17.30;99.90
9215;DHT22;4642;51.364;6.788;2022-10-18T15:11:14;17.30;99.90
9215;DHT22;4642;51.364;6.788;2022-10-18T15:13:56;17.30;1.00
9215;DHT22;4642;51.364;6.788;2022-10-18T15:16:26;17.20;1.00
9215;DHT22;4642;51.364;6.788;2022-10-18T15:21:59;17.10;11.60
9215;DHT22;4642;51.364;6.788;2022-10-18T15:26:51;17.00;99.90
9215;DHT22;4642;51.364;6.788;2022-10-18T15:29:19;16.80;99.90
9215;DHT22;4642;51.364;6.788;2022-10-18T15:31:47;16.80;99.90
9215;DHT22;4642;51.364;6.788;2022-10-18T15:34:22;16.70;99.90
9215;DHT22;4642;51.364;6.788;2022-10-18T15:36:49;16.70;99.90
9215;DHT22;4642;51.364;6.788;2022-10-18T15:41:49;16.50;63.70
9215;DHT22;4642;51.364;6.788;2022-10-18T15:44:31;16.50;99.90
9215;DHT22;4642;51.364;6.788;2022-10-18T15:49:50;16.30;99.90
9215;DHT22;4642;51.364;6.788;2022-10-18T15:52:36;16.30;99.90
9215;DHT22;4642;51.364;6.788;2022-10-18T15:58:03;16.10;99.90
9215;DHT22;4642;51.364;6.788;2022-10-18T16:00:28;16.00;99.90
9215;DHT22;4642;51.364;6.788;2022-10-18T16:02:54;15.90;99.90
9215;DHT22;4642;51.364;6.788;2022-10-18T16:05:19;15.80;99.90
9215;DHT22;4642;51.364;6.788;2022-10-18T16:07:50;15.70;99.90
9215;DHT22;4642;51.364;6.788;2022-10-18T16:10:16;15.60;99.90
9215;DHT22;4642;51.364;6.788;2022-10-18T16:12:42;15.60;99.90
9215;DHT22;4642;51.364;6.788;2022-10-18T16:15:07;15.50;99.90
9215;DHT22;4642;51.364;6.788;2022-10-18T16:17:33;15.50;99.90
9215;DHT22;4642;51.364;6.788;2022-10-18T16:19:59;15.40;99.90
9215;DHT22;4642;51.364;6.788;2022-10-18T16:22:24;15.30;99.90
9215;DHT22;4642;51.364;6.788;2022-10-18T16:24:49;15.20;99.90
9215;DHT22;4642;51.364;6.788;2022-10-18T16:27:17;15.10;99.90
9215;DHT22;4642;51.364;6.788;2022-10-18T16:29:42;15.10;99.90
9215;DHT22;4642;51.364;6.788;2022-10-18T16:32:08;14.90;99.90
9215;DHT22;4642;51.364;6.788;2022-10-18T16:34:33;14.90;99.90
9215;DHT22;4642;51.364;6.788;2022-10-18T16:36:59;14.80;99.90
9215;DHT22;4642;51.364;6.788;2022-10-18T16:39:25;14.70;99.90
9215;DHT22;4642;51.364;6.788;2022-10-18T16:41:50;14.70;99.90
9215;DHT22;4642;51.364;6.788;2022-10-18T16:44:16;14.60;99.90
9215;DHT22;4642;51.364;6.788;2022-10-18T16:46:44;14.50;99.90
9215;DHT22;4642;51.364;6.788;2022-10-18T16:49:23;14.40;99.90
9215;DHT22;4642;51.364;6.788;2022-10-18T16:51:51;14.30;99.90
9215;DHT22;4642;51.364;6.788;2022-10-18T16:54:16;14.30;99.90
9215;DHT22;4642;51.364;6.788;2022-10-18T16:56:42;14.20;99.90
9215;DHT22;4642;51.364;6.788;2022-10-18T16:59:14;14.10;99.90
9215;DHT22;4642;51.364;6.788;2022-10-18T17:01:42;13.90;99.90
9215;DHT22;4642;51.364;6.788;2022-10-18T17:04:07;13.90;99.90
9215;DHT22;4642;51.364;6.788;2022-10-18T17:06:33;13.80;99.90
9215;DHT22;4642;51.364;6.788;2022-10-18T17:08:58;13.70;99.90
9215;DHT22;4642;51.364;6.788;2022-10-18T17:11:26;13.70;99.90
9215;DHT22;4642;51.364;6.788;2022-10-18T17:13:52;13.60;99.90
9215;DHT22;4642;51.364;6.788;2022-10-18T17:16:27;13.60;99.90
9215;DHT22;4642;51.364;6.788;2022-10-18T17:18:55;13.50;99.90
9215;DHT22;4642;51.364;6.788;2022-10-18T17:21:22;13.50;99.90
9215;DHT22;4642;51.364;6.788;2022-10-18T17:23:47;13.40;99.90
9215;DHT22;4642;51.364;6.788;2022-10-18T17:26:16;13.30;99.90
9215;DHT22;4642;51.364;6.788;2022-10-18T17:28:42;13.30;99.90
9215;DHT22;4642;51.364;6.788;2022-10-18T17:31:07;13.20;99.90
9215;DHT22;4642;51.364;6.788;2022-10-18T17:33:33;13.10;99.90
9215;DHT22;4642;51.364;6.788;2022-10-18T17:35:58;13.00;99.90
9215;DHT22;4642;51.364;6.788;2022-10-18T17:38:24;13.00;99.90
9215;DHT22;4642;51.364;6.788;2022-10-18T17:40:49;12.90;99.90
9215;DHT22;4642;51.364;6.788;2022-10-18T17:43:17;12.90;99.90
9215;DHT22;4642;51.364;6.788;2022-10-18T17:45:53;12.80;99.90
9215;DHT22;4642;51.364;6.788;2022-10-18T17:48:20;12.70;99.90
9215;DHT22;4642;51.364;6.788;2022-10-18T17:50:45;12.70;99.90
9215;DHT22;4642;51.364;6.788;2022-10-18T17:53:11;12.60;99.90
9215;DHT22;4642;51.364;6.788;2022-10-18T17:55:37;12.60;99.90
9215;DHT22;4642;51.364;6.788;2022-10-18T17:58:03;12.50;99.90
9215;DHT22;4642;51.364;6.788;2022-10-18T18:00:29;12.40;99.90
9215;DHT22;4642;51.364;6.788;2022-10-18T18:02:58;12.40;99.90
9215;DHT22;4642;51.364;6.788;2022-10-18T18:05:24;12.40;99.90
9215;DHT22;4642;51.364;6.788;2022-10-18T18:07:49;12.30;99.90
9215;DHT22;4642;51.364;6.788;2022-10-18T18:10:15;12.20;99.90
9215;DHT22;4642;51.364;6.788;2022-10-18T18:12:41;12.10;99.90
9215;DHT22;4642;51.364;6.788;2022-10-18T18:15:10;12.10;99.90
9215;DHT22;4642;51.364;6.788;2022-10-18T18:17:35;12.00;99.90
9215;DHT22;4642;51.364;6.788;2022-10-18T18:20:01;12.00;99.90
9215;DHT22;4642;51.364;6.788;2022-10-18T18:22:26;11.90;99.90
9215;DHT22;4642;51.364;6.788;2022-10-18T18:24:52;11.90;99.90
9215;DHT22;4642;51.364;6.788;2022-10-18T18:27:17;11.80;99.90
9215;DHT22;4642;51.364;6.788;2022-10-18T18:29:43;11.80;99.90
9215;DHT22;4642;51.364;6.788;2022-10-18T18:32:08;11.70;99.90
9215;DHT22;4642;51.364;6.788;2022-10-18T18:34:34;11.70;99.90
9215;DHT22;4642;51.364;6.788;2022-10-18T18:37:00;11.60;99.90
9215;DHT22;4642;51.364;6.788;2022-10-18T18:39:26;11.50;99.90
9215;DHT22;4642;51.364;6.788;2022-10-18T18:41:55;11.50;99.90
9215;DHT22;4642;51.364;6.788;2022-10-18T18:44:21;11.40;99.90
9215;DHT22;4642;51.364;6.788;2022-10-18T18:46:47;11.40;99.90
9215;DHT22;4642;51.364;6.788;2022-10-18T18:49:13;11.30;99.90
9215;DHT22;4642;51.364;6.788;2022-10-18T18:51:40;11.30;99.90
9215;DHT22;4642;51.364;6.788;2022-10-18T18:54:08;11.20;99.90
9215;DHT22;4642;51.364;6.788;2022-10-18T18:56:34;11.10;99.90
9215;DHT22;4642;51.364;6.788;2022-10-18T18:59:00;11.10;99.90
9215;DHT22;4642;51.364;6.788;2022-10-18T19:01:28;11.10;99.90